Jericho, Texas
Current Conditions -  °F | °C
As of 5:15 PM on Friday 31 Oct 2014 (Local Time) from KOCH Reporting Station
Clear Clear  
Wind Chill: 68°   Ceiling: Unl
Heat Index: 68°   Visibility: 10mi
Dew Point: 43°   Wind: 12mph
Humidity: 40%   Direction: 350°N
Pressure: 30.22"   Gusts: 17mph
Location:  31.7586°N, 94.1975°W
Report Text: KOCH 312215Z AUTO 35010G15KT 10SM CLR 20/06 A3022 RMK AO1
Loading
Personal Weather Stations






























Interactive Weather Map
Tropical Storm Tracking
New forecast layout! Learn more

10-Day Weather Forecast

Advertisements
Track Severe Weather on mobile